createdAt,value
2022-11-15T00:01:34.635Z,57.88
2022-11-15T00:04:20.023Z,59.50
2022-11-15T00:07:05.828Z,53.85
2022-11-15T00:09:51.563Z,64.78
2022-11-15T00:12:37.317Z,58.97
2022-11-15T00:15:23.081Z,62.53
2022-11-15T00:18:14.192Z,73.13
2022-11-15T00:21:07.053Z,69.28
2022-11-15T00:23:52.686Z,62.28
2022-11-15T00:26:38.359Z,51.63
2022-11-15T00:29:24.157Z,99.25
2022-11-15T00:32:13.085Z,58.15
2022-11-15T00:34:58.788Z,60.30
2022-11-15T00:40:30.195Z,64.15
2022-11-15T00:43:15.797Z,57.97
2022-11-15T00:46:02.018Z,57.33
2022-11-15T00:48:47.692Z,64.05
2022-11-15T00:51:33.402Z,59.38
2022-11-15T00:57:05.086Z,54.42
2022-11-15T00:59:50.908Z,60.03
2022-11-15T01:02:36.916Z,56.42
2022-11-15T01:05:22.700Z,59.28
2022-11-15T01:08:14.204Z,57.97
2022-11-15T01:11:07.170Z,53.83
2022-11-15T01:13:53.034Z,53.95
2022-11-15T01:16:38.759Z,57.75
2022-11-15T01:19:24.536Z,52.50
2022-11-15T01:22:10.145Z,62.50
2022-11-15T01:24:56.186Z,55.85
2022-11-15T01:27:41.995Z,63.22
2022-11-15T01:30:28.206Z,60.03
2022-11-15T01:33:13.877Z,61.28
2022-11-15T01:35:59.518Z,59.28
2022-11-15T01:38:45.613Z,58.13
2022-11-15T01:41:34.115Z,61.67
2022-11-15T01:44:51.061Z,59.55
2022-11-15T01:47:41.851Z,59.50
2022-11-15T01:50:31.641Z,63.08
2022-11-15T01:53:18.431Z,63.03
2022-11-15T01:56:07.094Z,59.65
2022-11-15T01:58:56.598Z,61.60
2022-11-15T02:01:43.892Z,67.43
2022-11-15T02:04:33.864Z,64.63
2022-11-15T02:07:22.197Z,71.45
2022-11-15T02:10:11.617Z,71.03
2022-11-15T02:12:58.170Z,64.15
2022-11-15T02:16:16.018Z,75.55
2022-11-15T02:19:25.851Z,72.45
2022-11-15T02:22:41.069Z,61.13
2022-11-15T02:25:40.554Z,70.40
2022-11-15T02:28:32.436Z,70.20
2022-11-15T02:31:52.186Z,66.30
2022-11-15T02:34:50.101Z,71.25
2022-11-15T02:37:53.751Z,71.35
2022-11-15T02:41:00.548Z,69.07
2022-11-15T02:43:59.851Z,80.10
2022-11-15T02:47:13.812Z,88.55
2022-11-15T02:50:06.185Z,75.35
2022-11-15T02:52:52.738Z,81.40
2022-11-15T02:55:42.938Z,78.65
2022-11-15T02:58:50.074Z,71.32
2022-11-15T03:01:54.685Z,79.35
2022-11-15T03:04:53.859Z,84.90
2022-11-15T03:08:19.738Z,80.85
2022-11-15T03:11:18.330Z,107.55
2022-11-15T03:14:09.553Z,84.18
2022-11-15T03:17:02.287Z,77.88
2022-11-15T03:19:51.356Z,81.82
2022-11-15T03:22:44.397Z,88.95
2022-11-15T03:25:32.784Z,92.10
2022-11-15T03:28:27.751Z,91.55
2022-11-15T03:31:34.940Z,101.97
2022-11-15T03:34:26.762Z,96.07
2022-11-15T03:37:15.226Z,94.65
2022-11-15T03:40:02.452Z,101.55
2022-11-15T03:42:56.334Z,112.75
2022-11-15T03:45:51.493Z,93.15
2022-11-15T03:48:43.927Z,94.43
2022-11-15T03:51:30.937Z,86.22
2022-11-15T03:54:16.703Z,89.72
2022-11-15T03:57:02.760Z,86.03
2022-11-15T03:59:48.694Z,115.07
2022-11-15T04:02:34.763Z,93.00
2022-11-15T04:05:20.616Z,81.68
2022-11-15T04:08:06.616Z,85.75
2022-11-15T04:10:53.265Z,485.33
2022-11-15T04:13:39.362Z,307.23
2022-11-15T04:16:25.185Z,180.77
2022-11-15T04:19:29.643Z,212.20
2022-11-15T04:22:34.101Z,211.98
2022-11-15T04:25:23.506Z,213.95
2022-11-15T04:28:11.393Z,162.43
2022-11-15T04:30:57.301Z,182.82
2022-11-15T04:33:42.827Z,110.53
2022-11-15T04:36:46.998Z,135.13
2022-11-15T04:39:32.361Z,158.00
2022-11-15T04:42:18.024Z,173.38
2022-11-15T04:47:49.187Z,113.55
2022-11-15T04:50:34.813Z,106.97
2022-11-15T04:53:20.529Z,125.00
2022-11-15T04:56:06.469Z,115.30
2022-11-15T04:58:52.262Z,124.38
2022-11-15T05:01:43.564Z,125.57
2022-11-15T05:04:30.791Z,103.78
2022-11-15T05:07:16.383Z,123.75
2022-11-15T05:10:02.598Z,121.60
2022-11-15T05:12:48.287Z,114.13
2022-11-15T05:15:35.033Z,97.97
2022-11-15T05:18:23.574Z,121.45
2022-11-15T05:21:13.397Z,109.43
2022-11-15T05:23:59.762Z,112.60
2022-11-15T05:26:47.216Z,106.75
2022-11-15T05:29:32.754Z,127.13
2022-11-15T05:32:19.297Z,111.13
2022-11-15T05:35:08.104Z,170.70
2022-11-15T05:37:53.887Z,108.47
2022-11-15T05:43:25.786Z,135.40
2022-11-15T05:48:58.389Z,263.92
2022-11-15T05:51:46.893Z,116.35
2022-11-15T05:54:33.962Z,97.75
2022-11-15T05:57:19.578Z,140.20
2022-11-15T06:00:06.386Z,130.00
2022-11-15T06:02:51.678Z,139.80
2022-11-15T06:05:37.357Z,150.88
2022-11-15T06:08:23.023Z,172.00
2022-11-15T06:11:08.773Z,163.25
2022-11-15T06:13:54.526Z,170.10
2022-11-15T06:16:40.044Z,146.65
2022-11-15T06:19:25.780Z,147.88
2022-11-15T06:22:11.544Z,101.70
2022-11-15T06:25:00.257Z,136.82
2022-11-15T06:27:54.327Z,99.97
2022-11-15T06:30:39.621Z,84.07
2022-11-15T06:33:28.591Z,149.15
2022-11-15T06:36:17.946Z,73.95
2022-11-15T06:39:05.492Z,68.57
2022-11-15T06:41:51.187Z,135.15
2022-11-15T06:44:36.841Z,163.52
2022-11-15T06:47:22.333Z,116.97
2022-11-15T06:50:08.540Z,84.30
2022-11-15T06:52:54.078Z,141.55
2022-11-15T06:55:39.695Z,138.73
2022-11-15T06:58:25.438Z,109.85
2022-11-15T07:01:13.166Z,80.60
2022-11-15T07:03:58.989Z,111.85
2022-11-15T07:06:48.492Z,100.07
2022-11-15T07:09:34.399Z,98.93
2022-11-15T07:12:20.158Z,79.80
2022-11-15T07:17:51.773Z,94.75
2022-11-15T07:20:37.479Z,99.47
2022-11-15T07:23:23.394Z,111.00
2022-11-15T07:26:09.586Z,106.40
2022-11-15T07:28:55.816Z,95.28
2022-11-15T07:31:41.253Z,82.97
2022-11-15T07:34:27.081Z,95.20
2022-11-15T07:37:12.728Z,100.20
2022-11-15T07:39:58.429Z,82.75
2022-11-15T07:42:56.876Z,90.88
2022-11-15T07:45:46.717Z,95.47
2022-11-15T07:48:43.409Z,84.13
2022-11-15T07:51:29.679Z,91.95
2022-11-15T07:54:15.403Z,91.00
2022-11-15T07:57:05.722Z,139.82
2022-11-15T07:59:53.902Z,85.50
2022-11-15T08:02:39.901Z,83.03
2022-11-15T08:05:25.463Z,95.38
2022-11-15T08:08:21.804Z,92.32
2022-11-15T08:11:07.446Z,113.53
2022-11-15T08:13:53.461Z,112.63
2022-11-15T08:16:38.987Z,141.75
2022-11-15T08:19:24.733Z,119.50
2022-11-15T08:22:10.305Z,142.00
2022-11-15T08:24:56.147Z,89.68
2022-11-15T08:27:41.760Z,72.85
2022-11-15T08:30:28.043Z,79.45
2022-11-15T08:33:15.072Z,101.07
2022-11-15T08:36:01.813Z,83.40
2022-11-15T08:38:47.388Z,96.35
2022-11-15T08:41:36.860Z,91.00
2022-11-15T08:44:22.393Z,88.63
2022-11-15T08:47:08.703Z,102.28
2022-11-15T08:49:54.443Z,104.22
2022-11-15T08:52:40.021Z,160.60
2022-11-15T08:55:25.860Z,117.20
2022-11-15T08:58:11.698Z,120.70
2022-11-15T09:00:56.910Z,78.15
2022-11-15T09:03:42.700Z,98.40
2022-11-15T09:06:28.397Z,106.88
2022-11-15T09:09:14.025Z,73.70
2022-11-15T09:12:02.770Z,72.55
2022-11-15T09:14:48.803Z,79.05
2022-11-15T09:17:34.500Z,78.35
2022-11-15T09:20:20.231Z,98.63
2022-11-15T09:23:07.456Z,90.45
2022-11-15T09:25:58.890Z,86.30
2022-11-15T09:28:47.066Z,90.40
2022-11-15T09:31:33.126Z,125.00
2022-11-15T09:34:18.819Z,117.07
2022-11-15T09:37:04.686Z,116.95
2022-11-15T09:39:50.044Z,102.00
2022-11-15T09:43:07.428Z,99.22
2022-11-15T09:46:21.925Z,88.63
2022-11-15T09:49:10.274Z,112.25
2022-11-15T09:52:09.483Z,91.93
2022-11-15T09:54:58.191Z,100.93
2022-11-15T09:57:50.171Z,98.32
2022-11-15T10:03:28.279Z,108.15
2022-11-15T10:06:01.601Z,99.15
2022-11-15T10:08:51.320Z,98.95
2022-11-15T10:11:42.477Z,88.22
2022-11-15T10:14:25.281Z,110.07
2022-11-15T10:17:18.982Z,112.00
2022-11-15T10:19:51.737Z,90.72
2022-11-15T10:22:33.850Z,106.95
2022-11-15T10:25:09.777Z,114.38
2022-11-15T10:27:37.596Z,138.63
2022-11-15T10:30:12.287Z,95.80
2022-11-15T10:35:30.859Z,114.30
2022-11-15T10:38:09.714Z,79.13
2022-11-15T10:40:38.046Z,80.85
2022-11-15T10:43:18.160Z,80.43
2022-11-15T10:45:46.269Z,73.68
2022-11-15T10:48:13.542Z,72.45
2022-11-15T10:50:42.823Z,85.72
2022-11-15T10:53:31.751Z,82.78
2022-11-15T10:56:07.483Z,89.25
2022-11-15T10:58:42.371Z,82.55
2022-11-15T11:01:10.541Z,82.85
2022-11-15T11:03:39.944Z,71.50
2022-11-15T11:06:11.440Z,71.97
2022-11-15T11:08:39.203Z,67.78
2022-11-15T11:11:08.169Z,68.57
2022-11-15T11:13:38.444Z,69.82
2022-11-15T11:16:14.595Z,60.95
2022-11-15T11:18:50.665Z,81.43
2022-11-15T11:21:42.563Z,74.35
2022-11-15T11:24:26.738Z,70.80
2022-11-15T11:27:21.146Z,95.65
2022-11-15T11:30:22.840Z,121.78
2022-11-15T11:33:01.844Z,85.68
2022-11-15T11:35:47.983Z,87.68
2022-11-15T11:38:51.500Z,80.30
2022-11-15T11:41:25.424Z,93.95
2022-11-15T11:44:22.033Z,119.18
2022-11-15T11:46:59.621Z,98.88
2022-11-15T11:49:37.634Z,103.28
2022-11-15T11:52:28.175Z,97.75
2022-11-15T11:55:26.402Z,76.32
2022-11-15T11:58:11.167Z,83.88
2022-11-15T12:00:56.142Z,104.10
2022-11-15T12:03:23.509Z,103.35
2022-11-15T12:05:59.816Z,95.05
2022-11-15T12:08:42.138Z,109.82
2022-11-15T12:11:33.784Z,100.95
2022-11-15T12:14:09.904Z,94.43
2022-11-15T12:16:44.109Z,88.97
2022-11-15T12:19:11.785Z,87.88
2022-11-15T12:22:03.365Z,147.80
2022-11-15T12:24:40.675Z,86.65
2022-11-15T12:27:15.273Z,96.03
2022-11-15T12:29:49.658Z,81.55
2022-11-15T12:32:27.842Z,71.10
2022-11-15T12:34:56.586Z,81.32
2022-11-15T12:37:41.592Z,75.32
2022-11-15T12:40:22.217Z,80.57
2022-11-15T12:43:00.961Z,84.57
2022-11-15T12:45:41.333Z,79.40
2022-11-15T12:48:17.092Z,71.22
2022-11-15T12:50:55.937Z,72.13
2022-11-15T12:53:25.980Z,153.93
2022-11-15T12:56:05.189Z,109.90
2022-11-15T12:58:50.766Z,130.57
2022-11-15T13:01:33.650Z,89.45
2022-11-15T13:04:19.586Z,77.03
2022-11-15T13:06:51.565Z,84.10
2022-11-15T13:09:36.588Z,84.15
2022-11-15T13:12:35.342Z,98.90
2022-11-15T13:15:22.920Z,97.05
2022-11-15T13:17:56.092Z,86.85
2022-11-15T13:20:30.285Z,93.68
2022-11-15T13:23:10.713Z,95.57
2022-11-15T13:25:40.907Z,114.45
2022-11-15T13:28:17.152Z,100.80
2022-11-15T13:30:55.868Z,88.20
2022-11-15T13:33:35.914Z,89.82
2022-11-15T13:36:22.522Z,94.10
2022-11-15T13:39:04.055Z,100.10
2022-11-15T13:41:34.031Z,97.25
2022-11-15T13:44:02.927Z,100.07
2022-11-15T13:46:34.496Z,92.85
2022-11-15T13:49:12.427Z,82.57
2022-11-15T13:51:52.219Z,105.95
2022-11-15T13:54:19.581Z,281.40
2022-11-15T13:57:06.470Z,117.60
2022-11-15T13:59:49.572Z,118.90
2022-11-15T14:02:26.803Z,138.38
2022-11-15T14:05:17.702Z,151.05
2022-11-15T14:07:59.743Z,74.70
2022-11-15T14:10:29.846Z,153.52
2022-11-15T14:12:57.088Z,92.65
2022-11-15T14:15:33.213Z,116.50
2022-11-15T14:18:00.588Z,81.05
2022-11-15T14:20:35.100Z,106.78
2022-11-15T14:23:05.727Z,76.22
2022-11-15T14:25:36.856Z,85.05
2022-11-15T14:28:24.305Z,77.80
2022-11-15T14:30:53.811Z,119.82
2022-11-15T14:33:31.815Z,160.85
2022-11-15T14:36:07.726Z,155.52
2022-11-15T14:38:35.916Z,148.93
2022-11-15T14:41:03.936Z,78.78
2022-11-15T14:43:30.921Z,69.53
2022-11-15T14:46:02.206Z,102.50
2022-11-15T14:48:29.950Z,76.50
2022-11-15T14:50:57.934Z,84.18
2022-11-15T14:53:26.054Z,120.57
2022-11-15T14:55:53.334Z,65.65
2022-11-15T14:58:20.416Z,74.65
2022-11-15T15:00:47.770Z,87.20
2022-11-15T15:03:15.011Z,66.95
2022-11-15T15:05:44.222Z,178.70
2022-11-15T15:08:13.989Z,79.55
2022-11-15T15:10:46.284Z,106.97
2022-11-15T15:13:24.652Z,165.85
2022-11-15T15:15:53.129Z,69.43
2022-11-15T15:18:21.316Z,62.67
2022-11-15T15:21:07.945Z,131.48
2022-11-15T15:23:36.600Z,72.90
2022-11-15T15:26:05.519Z,90.50
2022-11-15T15:28:34.799Z,154.20
2022-11-15T15:31:03.121Z,67.00
2022-11-15T15:33:30.164Z,62.33
2022-11-15T15:35:57.481Z,67.25
2022-11-15T15:38:26.809Z,62.63
2022-11-15T15:40:54.448Z,93.10
2022-11-15T15:43:21.499Z,80.40
2022-11-15T15:45:48.800Z,62.30
2022-11-15T15:48:17.938Z,69.68
2022-11-15T15:50:45.334Z,92.57
2022-11-15T15:53:13.826Z,63.08
2022-11-15T15:55:41.551Z,78.75
2022-11-15T15:58:09.284Z,83.50
2022-11-15T16:00:37.796Z,125.55
2022-11-15T16:03:07.678Z,70.95
2022-11-15T16:05:35.192Z,74.30
2022-11-15T16:08:02.247Z,88.47
2022-11-15T16:10:32.334Z,50.58
2022-11-15T16:12:59.557Z,66.90
2022-11-15T16:15:29.927Z,57.08
2022-11-15T16:17:59.388Z,100.25
2022-11-15T16:20:37.521Z,71.10
2022-11-15T16:23:10.173Z,109.78
2022-11-15T16:25:56.656Z,85.32
2022-11-15T16:28:29.074Z,76.47
2022-11-15T16:31:12.241Z,67.53
2022-11-15T16:33:40.368Z,54.63
2022-11-15T16:36:28.669Z,59.00
2022-11-15T16:38:58.377Z,66.22
2022-11-15T16:41:26.035Z,91.50
2022-11-15T16:43:53.160Z,90.45
2022-11-15T16:46:25.825Z,50.80
2022-11-15T16:48:54.262Z,64.35
2022-11-15T16:51:22.244Z,51.80
2022-11-15T16:53:50.145Z,54.83
2022-11-15T16:56:29.081Z,38.30
2022-11-15T16:59:00.340Z,49.88
2022-11-15T17:01:30.530Z,36.05
2022-11-15T17:03:58.987Z,63.63
2022-11-15T17:06:29.314Z,33.33
2022-11-15T17:08:56.767Z,35.38
2022-11-15T17:11:24.392Z,68.80
2022-11-15T17:13:51.462Z,43.22
2022-11-15T17:16:19.058Z,34.40
2022-11-15T17:18:50.709Z,31.98
2022-11-15T17:21:20.787Z,33.28
2022-11-15T17:23:48.210Z,35.72
2022-11-15T17:26:34.988Z,34.13
2022-11-15T17:29:07.710Z,35.45
2022-11-15T17:31:36.298Z,31.38
2022-11-15T17:34:07.145Z,41.00
2022-11-15T17:36:35.627Z,46.22
2022-11-15T17:39:04.115Z,34.72
2022-11-15T17:41:32.234Z,32.95
2022-11-15T17:44:03.545Z,35.10
2022-11-15T17:46:31.542Z,56.45
2022-11-15T17:48:59.030Z,39.53
2022-11-15T17:51:26.538Z,32.00
2022-11-15T17:53:55.178Z,48.13
2022-11-15T17:56:26.826Z,41.10
2022-11-15T17:58:55.058Z,70.78
2022-11-15T18:01:30.586Z,69.40
2022-11-15T18:04:00.590Z,50.33
2022-11-15T18:06:32.710Z,59.38
2022-11-15T18:09:00.212Z,55.22
2022-11-15T18:11:30.279Z,45.08
2022-11-15T18:14:00.069Z,38.97
2022-11-15T18:16:30.913Z,84.13
2022-11-15T18:18:58.845Z,59.83
2022-11-15T18:21:28.900Z,59.03
2022-11-15T18:23:58.611Z,48.15
2022-11-15T18:26:28.039Z,61.00
2022-11-15T18:28:58.433Z,38.42
2022-11-15T18:31:28.454Z,43.38
2022-11-15T18:33:59.445Z,41.47
2022-11-15T18:36:30.225Z,36.42
2022-11-15T18:38:59.625Z,55.70
2022-11-15T18:41:30.839Z,40.38
2022-11-15T18:44:00.545Z,43.67
2022-11-15T18:46:30.740Z,31.95
2022-11-15T18:49:00.356Z,42.95
2022-11-15T18:51:31.358Z,56.97
2022-11-15T18:54:01.887Z,46.67
2022-11-15T18:56:31.170Z,48.10
2022-11-15T18:59:00.002Z,52.72
2022-11-15T19:01:34.156Z,52.15
2022-11-15T19:04:06.261Z,125.90
2022-11-15T19:06:41.277Z,104.43
2022-11-15T19:09:09.841Z,111.60
2022-11-15T19:11:39.599Z,68.80
2022-11-15T19:14:13.655Z,52.22
2022-11-15T19:16:50.040Z,90.47
2022-11-15T19:19:19.530Z,63.38
2022-11-15T19:21:47.508Z,118.53
2022-11-15T19:24:14.684Z,53.17
2022-11-15T19:26:42.660Z,79.43
2022-11-15T19:29:16.007Z,77.85
2022-11-15T19:31:43.480Z,68.57
2022-11-15T19:34:11.033Z,93.70
2022-11-15T19:36:42.283Z,92.88
2022-11-15T19:39:14.468Z,327.85
2022-11-15T19:41:47.869Z,252.68
2022-11-15T19:44:15.088Z,116.30
2022-11-15T19:46:42.879Z,104.28
2022-11-15T19:49:11.207Z,143.48
2022-11-15T19:51:39.630Z,154.07
2022-11-15T19:54:08.898Z,141.23
2022-11-15T19:56:37.463Z,158.45
2022-11-15T19:59:05.275Z,68.15
2022-11-15T20:01:39.269Z,64.60
2022-11-15T20:04:08.091Z,87.13
2022-11-15T20:06:39.268Z,133.73
2022-11-15T20:09:08.475Z,86.22
2022-11-15T20:11:38.105Z,64.13
2022-11-15T20:14:08.077Z,70.55
2022-11-15T20:16:35.759Z,51.42
2022-11-15T20:19:02.791Z,55.08
2022-11-15T20:21:30.133Z,55.20
2022-11-15T20:23:57.242Z,52.70
2022-11-15T20:26:24.551Z,59.75
2022-11-15T20:28:51.676Z,68.57
2022-11-15T20:31:19.101Z,60.03
2022-11-15T20:33:46.109Z,67.63
2022-11-15T20:36:15.637Z,52.85
2022-11-15T20:38:43.962Z,47.60
2022-11-15T20:41:12.512Z,46.20
2022-11-15T20:43:41.736Z,62.75
2022-11-15T20:46:10.521Z,58.95
2022-11-15T20:48:37.578Z,49.53
2022-11-15T20:51:11.539Z,49.50
2022-11-15T20:53:38.586Z,104.07
2022-11-15T20:56:09.816Z,66.10
2022-11-15T20:58:37.712Z,58.28
2022-11-15T21:01:06.904Z,44.58
2022-11-15T21:03:35.235Z,48.78
2022-11-15T21:06:03.647Z,107.95
2022-11-15T21:08:53.446Z,126.97
2022-11-15T21:11:39.658Z,88.93
2022-11-15T21:14:09.611Z,111.43
2022-11-15T21:16:38.915Z,204.05
2022-11-15T21:19:09.370Z,135.98
2022-11-15T21:21:37.192Z,103.18
2022-11-15T21:24:09.725Z,120.00
2022-11-15T21:26:37.509Z,92.68
2022-11-15T21:29:04.979Z,126.93
2022-11-15T21:31:32.408Z,170.57
2022-11-15T21:34:02.872Z,88.45
2022-11-15T21:36:30.643Z,118.97
2022-11-15T21:38:57.686Z,150.30
2022-11-15T21:41:25.090Z,202.10
2022-11-15T21:43:52.246Z,209.48
2022-11-15T21:46:22.517Z,113.40
2022-11-15T21:48:49.583Z,93.50
2022-11-15T21:51:16.918Z,165.75
2022-11-15T21:53:44.167Z,101.72
2022-11-15T21:56:14.186Z,80.20
2022-11-15T21:58:41.227Z,100.00
2022-11-15T22:01:28.969Z,77.03
2022-11-15T22:03:56.224Z,87.78
2022-11-15T22:06:24.645Z,125.22
2022-11-15T22:08:51.884Z,115.90
2022-11-15T22:11:19.542Z,103.88
2022-11-15T22:13:46.920Z,69.65
2022-11-15T22:16:14.402Z,75.43
2022-11-15T22:18:42.825Z,54.95
2022-11-15T22:21:13.509Z,110.18
2022-11-15T22:23:41.379Z,84.85
2022-11-15T22:26:12.263Z,100.13
2022-11-15T22:28:39.585Z,66.32
2022-11-15T22:31:07.174Z,65.82
2022-11-15T22:33:35.002Z,67.25
2022-11-15T22:36:04.352Z,103.68
2022-11-15T22:38:32.208Z,76.13
2022-11-15T22:41:00.443Z,65.72
2022-11-15T22:43:28.129Z,65.80
2022-11-15T22:45:58.106Z,55.53
2022-11-15T22:48:34.577Z,56.78
2022-11-15T22:51:03.323Z,190.73
2022-11-15T22:53:30.941Z,224.35
2022-11-15T22:56:00.970Z,335.98
2022-11-15T22:58:31.662Z,152.85
2022-11-15T23:01:01.607Z,171.20
2022-11-15T23:03:30.595Z,200.07
2022-11-15T23:06:03.874Z,148.13
2022-11-15T23:08:31.676Z,160.13
2022-11-15T23:11:22.477Z,213.70
2022-11-15T23:13:52.921Z,142.75
2022-11-15T23:16:26.089Z,150.63
2022-11-15T23:18:56.453Z,129.88
2022-11-15T23:21:46.735Z,151.70
2022-11-15T23:24:14.638Z,132.70
2022-11-15T23:26:43.421Z,81.82
2022-11-15T23:29:14.928Z,106.10
2022-11-15T23:32:02.671Z,72.07
2022-11-15T23:34:36.756Z,104.88
2022-11-15T23:37:05.277Z,196.07
2022-11-15T23:39:32.859Z,92.03
2022-11-15T23:42:05.919Z,70.78
2022-11-15T23:44:36.057Z,119.57
2022-11-15T23:47:03.852Z,118.63
2022-11-15T23:49:31.094Z,106.07
2022-11-15T23:51:58.724Z,145.55
2022-11-15T23:54:25.934Z,138.65
2022-11-15T23:56:53.410Z,110.45
2022-11-15T23:59:20.656Z,146.98
